< < Back
Terminal Aerodrome Forecast


Current Version              Previous Versions:   1  2  3  4  5  6  7  8  9  

Terminal Aerodrome Forecast

460
FTUS44 KOHX 022106 AAC
TAFBNA
TAF AMD
KBNA 022106Z 0221/0318 35005KT P6SM VCSH BKN005 BKN025
     FM022300 34006KT P6SM BKN025 OVC040
     FM030500 33005KT P6SM OVC040=

Latest METAR

374
SAUS70 KWBC 022300 RRL
MTRBNA
METAR KBNA 022253Z 34005KT 10SM BKN008 BKN014 OVC065 17/14 A2993 RMK AO2
SLP132 T01720144


USA.gov is the U.S. government's official web portal to all federal, state and local government web resources and services.